Dalzell, IL

3:43 AM CDT on September 29, 2016 (GMT -0500)
Illinois Valley Regional-Duncan

Weather History for KVYS - March, 2013

Change the Weather History Date:

Monday, March 4, 2013

  Actual Average Record
Temperature  
Mean Temperature 27 °F -  
Max Temperature 33 °F 42 °F 74 °F (1983)
Min Temperature 21 °F 25 °F -7 °F (2002)
Degree Days  
Heating Degree Days 38    
Moisture  
Dew Point 22 °F    
Average Humidity 74    
Maximum Humidity 83    
Minimum Humidity 66    
Precipitation  
Precipitation 0.00 in - - ()
Sea Level Pressure  
Sea Level Pressure 30.01 in    
Wind  
Wind Speed 10 mph (East)    
Max Wind Speed 21 mph    
Max Gust Speed 28 mph    
Visibility 10 miles    
Events      
Averages and records for this station are not official NWS values.
T = Trace of Precipitation, MM = Missing Value Source: NWS Daily Summary

Daily Weather History Graph

Daily Weather History Graph

Search for Another Location

Airport or City:

Trip Planner

Search our weather history database for the weather conditions in past years. The results will help you decide how hot, cold, wet, or windy it might be!

Date:

Astronomy

Mar. 04, 2013 Rise Set
Actual Time 6:25 AM CST 5:51 PM CST
Civil Twilight 5:58 AM CST 6:18 PM CST
Nautical Twilight 5:26 AM CST 6:50 PM CST
Astronomical Twilight 4:54 AM CST 7:22 PM CST
Moon 12:38 AM CST (3/4) 10:29 AM CST (3/4)
Length of Visible Light 12h 20m
Length of Day
11h 25m
Waning Gibbous, 52% of the Moon is Illuminated
Mar 4
Waning Gibbous
Mar 4
Last Quarter
Mar 11
New
Mar 19
First Quarter
Mar 27
Full

Hourly Weather History & Observations

Time (CST) Temp. Windchill Dew Point Humidity Pressure Visibility Wind Dir Wind Speed Gust Speed Precip Events Conditions
12:15 AM 22.8 °F 16.7 °F 13.1 °F 66% 30.10 in 10.0 mi East 4.6 mph - N/A   Clear
12:35 AM 22.8 °F 15.5 °F 14.7 °F 71% 30.10 in 10.0 mi East 5.8 mph - N/A   Clear
12:55 AM 23.0 °F 17.0 °F 14.0 °F 68% 30.10 in 10.0 mi East 4.6 mph - N/A   Clear
1:15 AM 21.9 °F 15.7 °F 13.8 °F 71% 30.11 in 10.0 mi East 4.6 mph - N/A   Clear
1:35 AM 22.6 °F 16.5 °F 14.4 °F 71% 30.10 in 10.0 mi East 4.6 mph - N/A   Clear
1:55 AM 21.9 °F 15.7 °F 14.5 °F 73% 30.10 in 10.0 mi East 4.6 mph - N/A   Clear
2:15 AM 21.9 °F 13.4 °F 14.2 °F 72% 30.09 in 10.0 mi East 6.9 mph - N/A   Clear
2:35 AM 21.9 °F 15.7 °F 14.9 °F 74% 30.09 in 10.0 mi East 4.6 mph - N/A   Clear
2:55 AM 21.7 °F 14.3 °F 15.6 °F 77% 30.08 in 10.0 mi East 5.8 mph - N/A   Clear
3:15 AM 22.3 °F 14.9 °F 16.7 °F 79% 30.07 in 10.0 mi East 5.8 mph - N/A   Clear
3:35 AM 23.2 °F 15.0 °F 17.6 °F 79% 30.07 in 10.0 mi ESE 6.9 mph - N/A   Clear
3:55 AM 23.9 °F 15.8 °F 18.3 °F 79% 30.06 in 10.0 mi East 6.9 mph - N/A   Clear
4:15 AM 24.6 °F 15.8 °F 19.0 °F 79% 30.06 in 10.0 mi ESE 8.1 mph - N/A   Clear
4:35 AM 24.8 °F 16.1 °F 19.4 °F 80% 30.06 in 10.0 mi ESE 8.1 mph - N/A   Scattered Clouds
4:55 AM 25.5 °F 16.9 °F 19.2 °F 77% 30.06 in 10.0 mi ESE 8.1 mph - N/A   Overcast
5:15 AM 26.1 °F 17.6 °F 19.2 °F 75% 30.06 in 10.0 mi East 8.1 mph - N/A   Overcast
5:35 AM 26.1 °F 17.6 °F 19.4 °F 76% 30.06 in 10.0 mi East 8.1 mph - N/A   Overcast
5:55 AM 26.6 °F 18.2 °F 19.0 °F 73% 30.06 in 10.0 mi ESE 8.1 mph - N/A   Mostly Cloudy
6:15 AM 26.6 °F 16.8 °F 19.2 °F 74% 30.06 in 10.0 mi ESE 10.4 mph - N/A   Scattered Clouds
6:35 AM 26.6 °F 16.8 °F 19.2 °F 74% 30.06 in 10.0 mi East 10.4 mph - N/A   Scattered Clouds
6:55 AM 26.6 °F 16.8 °F 19.4 °F 74% 30.05 in 10.0 mi ESE 10.4 mph - N/A   Scattered Clouds
7:15 AM 27.5 °F 17.4 °F 19.4 °F 72% 30.06 in 10.0 mi ESE 11.5 mph - N/A   Scattered Clouds
7:35 AM 27.7 °F 16.6 °F 19.4 °F 71% 30.05 in 10.0 mi ESE 13.8 mph 19.6 mph N/A   Mostly Cloudy
7:55 AM 28.0 °F 17.0 °F 19.9 °F 72% 30.05 in 10.0 mi ESE 13.8 mph - N/A   Overcast
8:15 AM 28.4 °F 17.0 °F 20.3 °F 72% 30.05 in 10.0 mi ESE 15.0 mph 20.7 mph N/A   Overcast
8:35 AM 28.6 °F 17.2 °F 20.5 °F 72% 30.04 in 10.0 mi ESE 15.0 mph - N/A   Overcast
8:55 AM 28.9 °F 16.5 °F 20.3 °F 70% 30.04 in 10.0 mi ESE 18.4 mph 23.0 mph N/A   Overcast
9:15 AM 29.3 °F 18.2 °F 20.8 °F 71% 30.04 in 10.0 mi ESE 15.0 mph 20.7 mph N/A   Overcast
9:35 AM 30.2 °F 20.2 °F 21.2 °F 69% 30.04 in 10.0 mi ESE 12.7 mph - N/A   Overcast
9:55 AM 30.2 °F 20.2 °F 20.8 °F 68% 30.04 in 10.0 mi ESE 12.7 mph 21.9 mph N/A   Overcast
10:15 AM 30.2 °F 19.3 °F 21.2 °F 69% 30.05 in 10.0 mi ESE 15.0 mph 19.6 mph N/A   Overcast
10:35 AM 30.2 °F 19.8 °F 22.1 °F 72% 30.03 in 7.0 mi ESE 13.8 mph - N/A   Overcast
10:55 AM 30.2 °F 19.3 °F 22.1 °F 72% 30.03 in 10.0 mi ESE 15.0 mph 21.9 mph N/A   Overcast
11:15 AM 30.6 °F 19.4 °F 22.5 °F 72% 30.02 in 10.0 mi East 16.1 mph 19.6 mph N/A   Overcast
11:35 AM 30.2 °F 18.9 °F 23.0 °F 75% 30.01 in 10.0 mi East 16.1 mph 19.6 mph N/A   Overcast
11:55 AM 31.5 °F 20.1 °F 23.2 °F 71% 30.01 in 10.0 mi ESE 17.3 mph 21.9 mph N/A   Overcast
12:15 PM 32.0 °F 22.5 °F 23.0 °F 69% 30.01 in 10.0 mi East 12.7 mph 17.3 mph N/A   Overcast
12:35 PM 32.2 °F 22.3 °F 22.8 °F 68% 30.00 in 10.0 mi East 13.8 mph 20.7 mph N/A   Overcast
12:55 PM 32.5 °F 22.7 °F 22.6 °F 67% 30.00 in 10.0 mi ESE 13.8 mph 23.0 mph N/A   Overcast
1:15 PM 32.5 °F 21.9 °F 23.0 °F 68% 29.99 in 10.0 mi ESE 16.1 mph - N/A   Overcast
1:35 PM 32.5 °F 21.5 °F 23.4 °F 69% 29.98 in 10.0 mi East 17.3 mph 23.0 mph N/A   Overcast
1:55 PM 32.7 °F 22.1 °F 23.0 °F 67% 29.97 in 10.0 mi East 16.1 mph 25.3 mph N/A   Overcast
2:15 PM 32.9 °F 21.6 °F 23.2 °F 67% 29.97 in 10.0 mi East 18.4 mph 26.5 mph N/A   Overcast
2:35 PM 32.5 °F 21.2 °F 23.0 °F 68% 29.96 in 10.0 mi East 18.4 mph 21.9 mph N/A   Overcast
2:55 PM 32.5 °F 23.2 °F 24.1 °F 71% 29.95 in 10.0 mi East 12.7 mph 27.6 mph N/A   Overcast
3:15 PM 32.5 °F 20.5 °F 24.8 °F 73% 29.94 in 10.0 mi East 20.7 mph 26.5 mph N/A   Mostly Cloudy
3:35 PM 32.5 °F 20.5 °F 25.5 °F 75% 29.93 in 10.0 mi East 20.7 mph 24.2 mph N/A   Mostly Cloudy
3:55 PM 33.1 °F 23.0 °F 25.2 °F 73% 29.93 in 10.0 mi East 15.0 mph 25.3 mph N/A   Overcast
4:15 PM 33.1 °F 23.0 °F 23.9 °F 69% 29.93 in 10.0 mi East 15.0 mph - N/A   Scattered Clouds
4:35 PM 33.1 °F 23.0 °F 23.4 °F 67% 29.93 in 10.0 mi East 15.0 mph - N/A   Clear
4:55 PM 33.1 °F 24.9 °F 23.9 °F 69% 29.94 in 10.0 mi East 10.4 mph - N/A   Scattered Clouds
5:15 PM 33.1 °F 23.9 °F 24.1 °F 70% 29.95 in 10.0 mi East 12.7 mph 20.7 mph N/A   Overcast
5:35 PM 32.0 °F 21.6 °F 25.9 °F 78% 29.95 in 10.0 mi East 15.0 mph - N/A   Overcast
5:55 PM 32.0 °F 21.6 °F 26.6 °F 80% 29.96 in 10.0 mi East 15.0 mph - N/A   Overcast
6:15 PM 32.2 °F 22.7 °F 26.6 °F 80% 29.97 in 10.0 mi East 12.7 mph - N/A   Overcast
6:35 PM 32.4 °F 23.5 °F 26.8 °F 80% 29.97 in 10.0 mi East 11.5 mph - N/A   Overcast
6:55 PM 33.1 °F 24.9 °F 26.1 °F 75% 29.98 in 10.0 mi East 10.4 mph - N/A   Overcast
7:15 PM 33.1 °F 23.9 °F 25.3 °F 73% 29.98 in 10.0 mi East 12.7 mph 20.7 mph N/A   Overcast
7:35 PM 33.1 °F 23.9 °F 25.7 °F 74% 29.98 in 10.0 mi East 12.7 mph 19.6 mph N/A   Overcast
7:55 PM 33.1 °F 22.6 °F 26.1 °F 75% 29.98 in 10.0 mi East 16.1 mph - N/A   Overcast
8:15 PM 32.9 °F 23.2 °F 26.4 °F 77% 29.98 in 10.0 mi East 13.8 mph - N/A   Overcast
8:35 PM 32.5 °F 21.9 °F 26.4 °F 78% 29.98 in 10.0 mi East 16.1 mph - N/A   Overcast
8:55 PM 32.5 °F 22.3 °F 26.4 °F 78% 29.97 in 10.0 mi East 15.0 mph - N/A   Overcast
9:15 PM 32.5 °F 22.7 °F 26.6 °F 79% 29.97 in 10.0 mi East 13.8 mph - N/A   Overcast
9:35 PM 32.5 °F 22.7 °F 27.0 °F 80% 29.97 in 10.0 mi East 13.8 mph - N/A   Overcast
9:55 PM 32.5 °F 23.2 °F 27.5 °F 82% 29.97 in 10.0 mi East 12.7 mph - N/A   Overcast
10:15 PM 32.5 °F 22.7 °F 27.3 °F 81% 29.96 in 10.0 mi East 13.8 mph - N/A   Overcast
10:35 PM 32.5 °F 22.7 °F 27.5 °F 82% 29.95 in 10.0 mi East 13.8 mph - N/A   Overcast
10:55 PM 32.5 °F 23.7 °F 27.5 °F 82% 29.95 in 10.0 mi East 11.5 mph - N/A   Overcast
11:35 PM 32.5 °F 24.2 °F 27.9 °F 83% 29.94 in 10.0 mi East 10.4 mph - N/A   Overcast
11:55 PM 32.9 °F 24.7 °F 28.2 °F 83% 29.94 in 10.0 mi East 10.4 mph - N/A   Overcast